Time;durP1;ratioP1;P1;durP2;ratioP2;P2;SDS_P1;SDS_P2;PMS_P1;PMS_P2;Temp;Humidity;BMP_temperature;BMP_pressure;BME280_temperature;BME280_humidity;BME280_pressure;Samples;Min_cycle;Max_cycle;Signal;HPM_P1;HPM_P2
2024/03/02 00:01:39;0.00;0.00;0.62;0.00;0.00;0.62;3.80;3.20;;;23.50;23.80;;;;;;2263678;61;20371;-65
2024/03/02 00:04:25;0.00;0.00;0.62;0.00;0.00;0.62;3.83;3.37;;;23.50;23.80;;;;;;2421415;45;20448;-65
2024/03/02 00:07:10;0.00;0.00;0.62;0.00;0.00;0.62;3.40;3.10;;;23.50;23.80;;;;;;2263155;61;20410;-66
2024/03/02 00:09:55;0.00;0.00;0.62;0.00;0.00;0.62;3.80;3.03;;;23.50;23.80;;;;;;2263577;61;20388;-65
2024/03/02 00:12:42;0.00;0.00;0.62;0.00;0.00;0.62;3.97;3.17;;;23.50;23.80;;;;;;2263742;61;20888;-65
2024/03/02 00:15:44;0.00;0.00;0.62;0.00;0.00;0.62;4.30;3.73;;;23.50;23.80;;;;;;2331677;53;20384;-66
2024/03/02 00:18:32;0.00;0.00;0.62;0.00;0.00;0.62;3.67;2.97;;;23.50;23.80;;;;;;2412471;45;20410;-65
2024/03/02 00:21:20;0.00;0.00;0.62;0.00;0.00;0.62;3.40;3.10;;;23.50;23.80;;;;;;2416998;45;20367;-65
2024/03/02 00:24:19;0.00;0.00;0.62;0.00;0.00;0.62;3.57;3.13;;;23.50;23.80;;;;;;2263444;61;20438;-66
2024/03/02 00:27:05;0.00;0.00;0.62;0.00;0.00;0.62;4.20;3.10;;;23.50;23.80;;;;;;2263630;61;20439;-65
2024/03/02 00:29:51;0.00;0.00;0.62;0.00;0.00;0.62;3.40;3.10;;;23.50;23.80;;;;;;2263199;61;20400;-66
2024/03/02 00:32:36;0.00;0.00;0.62;0.00;0.00;0.62;3.23;2.73;;;23.50;23.80;;;;;;2317365;53;20939;-65
2024/03/02 00:35:22;0.00;0.00;0.62;0.00;0.00;0.62;4.20;3.23;;;23.50;23.80;;;;;;2444920;45;20435;-66
2024/03/02 00:38:06;0.00;0.00;0.62;0.00;0.00;0.62;3.77;2.80;;;23.50;23.80;;;;;;2263462;61;20444;-65
2024/03/02 00:40:52;0.00;0.00;0.62;0.00;0.00;0.62;3.37;2.77;;;23.50;23.80;;;;;;2263358;61;20393;-65
2024/03/02 00:43:45;0.00;0.00;0.62;0.00;0.00;0.62;4.30;3.13;;;23.50;23.80;;;;;;2385701;45;20368;-65
2024/03/02 00:46:34;0.00;0.00;0.62;0.00;0.00;0.62;3.40;3.00;;;23.50;23.90;;;;;;2366432;53;20847;-65
2024/03/02 00:49:23;0.00;0.00;0.62;0.00;0.00;0.62;2.60;2.20;;;23.50;23.80;;;;;;2263385;61;20434;-65
2024/03/02 00:52:08;0.00;0.00;0.62;0.00;0.00;0.62;3.37;2.90;;;23.50;23.90;;;;;;2262878;61;20410;-65
2024/03/02 00:54:56;0.00;0.00;0.62;0.00;0.00;0.62;4.40;3.40;;;23.50;23.90;;;;;;2261542;61;20807;-65
2024/03/02 00:57:41;0.00;0.00;0.62;0.00;0.00;0.62;4.10;2.97;;;23.50;23.90;;;;;;2263380;61;20852;-66
2024/03/02 01:00:26;0.00;0.00;0.62;0.00;0.00;0.62;3.20;2.50;;;23.40;23.80;;;;;;2430116;45;20411;-65
2024/03/02 01:03:12;0.00;0.00;0.62;0.00;0.00;0.62;3.23;2.90;;;23.40;23.80;;;;;;2263571;61;20398;-65
2024/03/02 01:05:57;0.00;0.00;0.62;0.00;0.00;0.62;3.83;3.23;;;23.40;23.80;;;;;;2263325;61;20918;-66
2024/03/02 01:08:42;0.00;0.00;0.62;0.00;0.00;0.62;3.07;2.30;;;23.40;23.80;;;;;;2263367;61;20910;-65
2024/03/02 01:11:27;0.00;0.00;0.62;0.00;0.00;0.62;3.20;2.90;;;23.40;23.80;;;;;;2370355;53;20451;-65
2024/03/02 01:14:12;0.00;0.00;0.62;0.00;0.00;0.62;2.90;2.60;;;23.40;23.80;;;;;;2263199;61;20376;-66
2024/03/02 01:16:57;0.00;0.00;0.62;0.00;0.00;0.62;2.67;2.33;;;23.50;23.90;;;;;;2263432;61;20434;-65
2024/03/02 01:19:43;0.00;0.00;0.62;0.00;0.00;0.62;2.90;2.47;;;23.40;23.80;;;;;;2263435;61;20461;-65
2024/03/02 01:22:28;0.00;0.00;0.62;0.00;0.00;0.62;3.80;2.93;;;23.40;23.80;;;;;;2336841;53;20909;-65
2024/03/02 01:25:13;0.00;0.00;0.62;0.00;0.00;0.62;3.70;2.50;;;23.40;23.80;;;;;;2263453;61;20407;-66
2024/03/02 01:27:58;0.00;0.00;0.62;0.00;0.00;0.62;3.13;2.43;;;23.40;23.80;;;;;;2263093;61;20466;-65
2024/03/02 01:30:43;0.00;0.00;0.62;0.00;0.00;0.62;3.07;2.50;;;23.40;23.80;;;;;;2263283;61;20411;-65
2024/03/02 01:33:28;0.00;0.00;0.62;0.00;0.00;0.62;3.20;2.60;;;23.40;23.80;;;;;;2430960;45;20368;-65
2024/03/02 01:36:14;0.00;0.00;0.62;0.00;0.00;0.62;3.30;2.70;;;23.40;23.80;;;;;;2262990;61;20473;-65
2024/03/02 01:38:58;0.00;0.00;0.62;0.00;0.00;0.62;3.33;2.67;;;23.40;23.80;;;;;;2263042;61;20363;-65
2024/03/02 01:41:43;0.00;0.00;0.62;0.00;0.00;0.62;3.50;3.00;;;23.40;23.80;;;;;;2263577;61;20495;-65
2024/03/02 01:44:27;0.00;0.00;0.62;0.00;0.00;0.62;2.93;2.53;;;23.40;23.80;;;;;;2424208;45;20394;-66
2024/03/02 01:47:12;0.00;0.00;0.62;0.00;0.00;0.62;3.17;2.47;;;23.40;23.90;;;;;;2263309;61;20387;-65
2024/03/02 01:49:57;0.00;0.00;0.62;0.00;0.00;0.62;2.70;2.20;;;23.40;24.40;;;;;;2263058;61;20403;-66
2024/03/02 01:52:44;0.00;0.00;0.62;0.00;0.00;0.62;2.77;2.10;;;23.40;23.90;;;;;;2262294;61;20402;-65
2024/03/02 01:55:30;0.00;0.00;0.62;0.00;0.00;0.62;2.80;2.47;;;23.40;23.90;;;;;;2303158;53;20426;-65
2024/03/02 01:58:14;0.00;0.00;0.62;0.00;0.00;0.62;3.87;2.50;;;23.40;23.90;;;;;;2262897;61;20410;-66
2024/03/02 02:00:59;0.00;0.00;0.62;0.00;0.00;0.62;3.80;2.93;;;23.40;23.90;;;;;;2263576;61;20391;-66
2024/03/02 02:03:44;0.00;0.00;0.62;0.00;0.00;0.62;3.47;2.60;;;23.40;23.90;;;;;;2263651;61;20447;-65
2024/03/02 02:06:29;0.00;0.00;0.62;0.00;0.00;0.62;3.00;2.40;;;23.40;23.80;;;;;;2430266;45;20363;-65
2024/03/02 02:09:15;0.00;0.00;0.62;0.00;0.00;0.62;3.03;2.37;;;23.40;23.80;;;;;;2263986;61;20418;-65
2024/03/02 02:12:00;0.00;0.00;0.62;0.00;0.00;0.62;2.83;2.60;;;23.40;23.90;;;;;;2263904;61;20372;-66
2024/03/02 02:14:48;0.00;0.00;0.62;0.00;0.00;0.62;4.63;2.83;;;23.40;23.80;;;;;;2263859;61;20375;-65
2024/03/02 02:17:33;0.00;0.00;0.62;0.00;0.00;0.62;3.40;2.80;;;23.40;23.80;;;;;;2419809;45;20364;-66
2024/03/02 02:20:18;0.00;0.00;0.62;0.00;0.00;0.62;3.40;2.40;;;23.40;23.80;;;;;;2269524;58;20391;-66
2024/03/02 02:23:06;0.00;0.00;0.62;0.00;0.00;0.62;3.07;2.60;;;23.40;23.90;;;;;;2263878;61;20379;-66
2024/03/02 02:25:50;0.00;0.00;0.62;0.00;0.00;0.62;3.00;2.43;;;23.40;23.80;;;;;;2257790;61;20379;-65
2024/03/02 02:28:35;0.00;0.00;0.62;0.00;0.00;0.62;3.83;2.80;;;23.40;23.90;;;;;;2410680;45;20367;-66
2024/03/02 02:31:19;0.00;0.00;0.62;0.00;0.00;0.62;3.80;2.60;;;23.40;23.90;;;;;;2263967;61;20518;-65
2024/03/02 02:34:04;0.00;0.00;0.62;0.00;0.00;0.62;4.47;2.70;;;23.40;23.90;;;;;;2263445;61;20451;-66
2024/03/02 02:36:48;0.00;0.00;0.62;0.00;0.00;0.62;3.00;2.53;;;23.40;24.40;;;;;;2263792;61;20434;-65
2024/03/02 02:39:34;0.00;0.00;0.62;0.00;0.00;0.62;3.50;2.90;;;23.40;23.80;;;;;;2424422;45;20944;-65
2024/03/02 02:42:19;0.00;0.00;0.62;0.00;0.00;0.62;3.63;2.80;;;23.40;23.80;;;;;;2263194;61;20426;-65
2024/03/02 02:45:05;0.00;0.00;0.62;0.00;0.00;0.62;3.43;2.70;;;23.40;23.80;;;;;;2264078;61;20372;-65
2024/03/02 02:47:49;0.00;0.00;0.62;0.00;0.00;0.62;4.17;3.03;;;23.40;23.80;;;;;;2263963;61;20375;-65
2024/03/02 02:50:34;0.00;0.00;0.62;0.00;0.00;0.62;3.00;2.47;;;23.40;23.90;;;;;;2341627;53;20477;-65
2024/03/02 02:53:19;0.00;0.00;0.62;0.00;0.00;0.62;3.73;3.00;;;23.40;23.80;;;;;;2263647;61;20427;-66
2024/03/02 02:56:05;0.00;0.00;0.62;0.00;0.00;0.62;3.73;3.37;;;23.40;23.80;;;;;;2318353;58;20396;-65
2024/03/02 02:58:50;0.00;0.00;0.62;0.00;0.00;0.62;4.23;3.23;;;23.40;23.80;;;;;;2263653;61;20476;-65
2024/03/02 03:01:34;0.00;0.00;0.62;0.00;0.00;0.62;2.37;2.07;;;23.40;23.80;;;;;;2422917;45;20460;-65
2024/03/02 03:04:19;0.00;0.00;0.62;0.00;0.00;0.62;3.87;3.33;;;23.40;23.80;;;;;;2263514;61;20376;-66
2024/03/02 03:07:04;0.00;0.00;0.62;0.00;0.00;0.62;3.10;2.57;;;23.40;23.80;;;;;;2263924;61;20379;-66
2024/03/02 03:09:49;0.00;0.00;0.62;0.00;0.00;0.62;4.50;2.57;;;23.40;23.80;;;;;;2263940;61;20940;-65
2024/03/02 03:12:36;0.00;0.00;0.62;0.00;0.00;0.62;3.43;2.50;;;23.40;23.80;;;;;;2424834;45;20419;-66
2024/03/02 03:15:20;0.00;0.00;0.62;0.00;0.00;0.62;3.30;2.50;;;23.40;23.80;;;;;;2263730;61;20383;-65
2024/03/02 03:18:06;0.00;0.00;0.62;0.00;0.00;0.62;3.30;2.70;;;23.40;23.80;;;;;;2263724;61;20404;-65
2024/03/02 03:20:50;0.00;0.00;0.62;0.00;0.00;0.62;3.73;3.27;;;23.30;23.70;;;;;;2263577;61;20780;-65
2024/03/02 03:23:35;0.00;0.00;0.62;0.00;0.00;0.62;3.03;2.43;;;23.30;23.70;;;;;;2409665;45;20447;-65
2024/03/02 03:26:19;0.00;0.00;0.62;0.00;0.00;0.62;3.90;2.67;;;23.30;23.80;;;;;;2263616;61;20454;-65
2024/03/02 03:29:06;0.00;0.00;0.62;0.00;0.00;0.62;2.70;2.33;;;23.40;23.80;;;;;;2261912;61;20379;-65
2024/03/02 03:31:51;0.00;0.00;0.62;0.00;0.00;0.62;2.97;2.50;;;23.30;23.70;;;;;;2263533;61;21175;-65
2024/03/02 03:34:36;0.00;0.00;0.62;0.00;0.00;0.62;2.77;2.30;;;23.30;23.80;;;;;;2343056;53;20904;-65
2024/03/02 03:37:20;0.00;0.00;0.62;0.00;0.00;0.62;2.90;2.60;;;23.30;23.80;;;;;;2263609;61;20365;-65
2024/03/02 03:40:09;0.00;0.00;0.62;0.00;0.00;0.62;3.13;2.60;;;23.30;24.30;;;;;;2263549;61;20484;-65
2024/03/02 03:42:55;0.00;0.00;0.62;0.00;0.00;0.62;3.63;2.60;;;23.30;23.80;;;;;;2263640;61;20919;-65
2024/03/02 03:45:42;0.00;0.00;0.62;0.00;0.00;0.62;3.03;2.60;;;23.30;23.80;;;;;;2263802;61;20375;-65
2024/03/02 03:48:30;0.00;0.00;0.62;0.00;0.00;0.62;3.00;2.67;;;23.30;23.80;;;;;;2263481;61;20462;-65
2024/03/02 03:51:14;0.00;0.00;0.62;0.00;0.00;0.62;3.30;2.13;;;23.30;23.80;;;;;;2263449;61;20387;-64
2024/03/02 03:53:59;0.00;0.00;0.62;0.00;0.00;0.62;3.00;2.30;;;23.30;23.80;;;;;;2263627;61;20380;-65
2024/03/02 03:56:44;0.00;0.00;0.62;0.00;0.00;0.62;2.63;2.13;;;23.30;23.80;;;;;;2395738;45;20773;-65
2024/03/02 03:59:29;0.00;0.00;0.62;0.00;0.00;0.62;2.60;2.33;;;23.30;23.80;;;;;;2263507;61;20912;-65
2024/03/02 04:02:15;0.00;0.00;0.62;0.00;0.00;0.62;3.30;2.80;;;23.30;23.80;;;;;;2263643;61;20379;-65
2024/03/02 04:05:00;0.00;0.00;0.62;0.00;0.00;0.62;2.63;2.23;;;23.30;23.80;;;;;;2263465;61;20403;-65
2024/03/02 04:07:44;0.00;0.00;0.62;0.00;0.00;0.62;2.60;2.27;;;23.30;23.80;;;;;;2354808;53;20372;-65
2024/03/02 04:10:30;0.00;0.00;0.62;0.00;0.00;0.62;2.37;2.00;;;23.30;23.80;;;;;;2262870;61;21003;-65
2024/03/02 04:13:14;0.00;0.00;0.62;0.00;0.00;0.62;3.03;2.43;;;23.30;23.80;;;;;;2259982;61;20430;-65
2024/03/02 04:15:59;0.00;0.00;0.62;0.00;0.00;0.62;2.70;2.40;;;23.30;23.80;;;;;;2263609;61;20424;-65
2024/03/02 04:18:45;0.00;0.00;0.62;0.00;0.00;0.62;2.47;2.10;;;23.30;23.80;;;;;;2401379;45;20410;-66
2024/03/02 04:21:30;0.00;0.00;0.62;0.00;0.00;0.62;2.70;2.33;;;23.30;23.80;;;;;;2263684;61;20430;-65
2024/03/02 04:24:15;0.00;0.00;0.62;0.00;0.00;0.62;2.83;2.23;;;23.30;23.80;;;;;;2262979;61;20468;-64
2024/03/02 04:26:59;0.00;0.00;0.62;0.00;0.00;0.62;3.17;2.50;;;23.30;23.90;;;;;;2263284;61;20376;-65
2024/03/02 04:29:44;0.00;0.00;0.62;0.00;0.00;0.62;2.90;2.20;;;23.30;23.90;;;;;;2347376;45;20427;-64
2024/03/02 04:32:28;0.00;0.00;0.62;0.00;0.00;0.62;2.90;2.40;;;23.30;23.90;;;;;;2263273;61;20379;-65
2024/03/02 04:35:14;0.00;0.00;0.62;0.00;0.00;0.62;3.30;2.90;;;23.30;23.80;;;;;;2263251;61;20685;-65
2024/03/02 04:37:59;0.00;0.00;0.62;0.00;0.00;0.62;2.90;2.40;;;23.20;23.80;;;;;;2263777;61;20376;-65
2024/03/02 04:40:44;0.00;0.00;0.62;0.00;0.00;0.62;2.90;2.37;;;23.30;23.80;;;;;;2380744;45;20464;-65
2024/03/02 04:43:28;0.00;0.00;0.62;0.00;0.00;0.62;2.80;2.03;;;23.30;23.80;;;;;;2263534;61;21304;-65
2024/03/02 04:46:13;0.00;0.00;0.62;0.00;0.00;0.62;2.97;2.40;;;23.20;23.80;;;;;;2263631;61;20387;-65
2024/03/02 04:48:57;0.00;0.00;0.62;0.00;0.00;0.62;3.00;2.30;;;23.20;23.80;;;;;;2262993;61;20909;-65
2024/03/02 04:51:43;0.00;0.00;0.62;0.00;0.00;0.62;2.67;2.17;;;23.20;23.80;;;;;;2338786;53;20407;-65
2024/03/02 04:54:28;0.00;0.00;0.62;0.00;0.00;0.62;2.53;1.93;;;23.20;24.30;;;;;;2263346;61;20388;-66
2024/03/02 04:57:12;0.00;0.00;0.62;0.00;0.00;0.62;3.27;2.20;;;23.20;23.80;;;;;;2263456;61;20400;-64
2024/03/02 04:59:57;0.00;0.00;0.62;0.00;0.00;0.62;2.53;2.17;;;23.20;23.80;;;;;;2263443;61;20427;-65
2024/03/02 05:02:42;0.00;0.00;0.62;0.00;0.00;0.62;2.80;2.37;;;23.20;23.80;;;;;;2417595;45;20375;-65
2024/03/02 05:05:26;0.00;0.00;0.62;0.00;0.00;0.62;2.10;1.70;;;23.20;23.80;;;;;;2263556;61;20372;-65
2024/03/02 05:08:12;0.00;0.00;0.62;0.00;0.00;0.62;2.67;2.03;;;23.20;23.80;;;;;;2263294;61;20797;-66
2024/03/02 05:11:28;0.00;0.00;0.62;0.00;0.00;0.62;2.17;1.77;;;23.20;23.80;;;;;;2263302;61;20454;-65
2024/03/02 05:14:01;0.00;0.00;0.62;0.00;0.00;0.62;3.10;2.10;;;23.20;23.80;;;;;;2263575;61;20509;-65
2024/03/02 05:16:46;0.00;0.00;0.62;0.00;0.00;0.62;2.93;2.10;;;23.20;23.80;;;;;;2332661;53;20391;-66
2024/03/02 05:19:31;0.00;0.00;0.62;0.00;0.00;0.62;2.90;2.43;;;23.20;23.90;;;;;;2263064;61;20408;-65
2024/03/02 05:22:16;0.00;0.00;0.62;0.00;0.00;0.62;2.50;1.93;;;23.20;23.90;;;;;;2263549;61;20374;-65
2024/03/02 05:25:02;0.00;0.00;0.62;0.00;0.00;0.62;2.80;2.43;;;23.20;23.90;;;;;;2263081;61;20372;-65
2024/03/02 05:27:47;0.00;0.00;0.62;0.00;0.00;0.62;2.40;1.90;;;23.20;23.90;;;;;;2327050;53;20422;-65
2024/03/02 05:30:32;0.00;0.00;0.62;0.00;0.00;0.62;2.53;2.07;;;23.20;23.90;;;;;;2267290;58;20420;-65
2024/03/02 05:33:16;0.00;0.00;0.62;0.00;0.00;0.62;3.03;2.20;;;23.20;23.90;;;;;;2262956;61;20571;-66
2024/03/02 05:36:01;0.00;0.00;0.62;0.00;0.00;0.62;2.30;1.90;;;23.20;23.90;;;;;;2263549;61;20438;-65
2024/03/02 05:38:46;0.00;0.00;0.62;0.00;0.00;0.62;2.80;2.00;;;23.20;23.90;;;;;;2410427;45;20395;-66
2024/03/02 05:41:32;0.00;0.00;0.62;0.00;0.00;0.62;2.30;1.80;;;23.20;23.90;;;;;;2263187;61;20375;-65
2024/03/02 05:44:18;0.00;0.00;0.62;0.00;0.00;0.62;2.17;1.93;;;23.20;23.90;;;;;;2263319;61;20901;-65
2024/03/02 05:47:03;0.00;0.00;0.62;0.00;0.00;0.62;2.60;1.70;;;23.20;23.90;;;;;;2263132;61;20889;-65
2024/03/02 05:49:48;0.00;0.00;0.62;0.00;0.00;0.62;2.70;1.80;;;23.20;23.90;;;;;;2353389;53;20943;-65
2024/03/02 05:52:32;0.00;0.00;0.62;0.00;0.00;0.62;2.40;1.70;;;23.20;24.00;;;;;;2263325;61;20414;-65
2024/03/02 05:55:17;0.00;0.00;0.62;0.00;0.00;0.62;3.00;2.03;;;23.20;23.90;;;;;;2260974;61;20937;-65
2024/03/02 06:00:51;0.00;0.00;0.62;0.00;0.00;0.62;2.67;2.07;;;23.20;24.00;;;;;;2324614;53;20450;-65
2024/03/02 06:03:35;0.00;0.00;0.62;0.00;0.00;0.62;2.57;2.10;;;23.10;23.90;;;;;;2263215;61;20948;-64
2024/03/02 06:06:20;0.00;0.00;0.62;0.00;0.00;0.62;2.30;1.90;;;23.10;23.90;;;;;;2263353;61;20869;-65
2024/03/02 06:09:07;0.00;0.00;0.62;0.00;0.00;0.62;2.33;1.77;;;23.20;24.00;;;;;;2263155;61;20852;-65
2024/03/02 06:11:52;0.00;0.00;0.62;0.00;0.00;0.62;2.40;1.60;;;23.10;23.90;;;;;;2392881;45;20415;-65
2024/03/02 06:14:37;0.00;0.00;0.62;0.00;0.00;0.62;2.50;1.70;;;23.10;23.90;;;;;;2263474;61;20855;-65
2024/03/02 06:17:22;0.00;0.00;0.62;0.00;0.00;0.62;2.50;1.93;;;23.10;23.90;;;;;;2262758;61;20566;-65
2024/03/02 06:20:08;0.00;0.00;0.62;0.00;0.00;0.62;2.30;1.77;;;23.10;23.90;;;;;;2263314;61;20391;-65
2024/03/02 06:22:52;0.00;0.00;0.62;0.00;0.00;0.62;2.07;1.70;;;23.10;23.90;;;;;;2368255;45;20826;-65
2024/03/02 06:25:37;0.00;0.00;0.62;0.00;0.00;0.62;2.20;2.00;;;23.10;23.90;;;;;;2451911;45;20359;-65
2024/03/02 06:28:22;0.00;0.00;0.62;0.00;0.00;0.62;2.60;1.93;;;23.10;23.90;;;;;;2262949;61;20780;-64
2024/03/02 06:31:08;0.00;0.00;0.62;0.00;0.00;0.62;2.10;1.57;;;23.10;23.90;;;;;;2262518;61;20484;-65
2024/03/02 06:33:52;0.00;0.00;0.62;0.00;0.00;0.62;2.47;1.90;;;23.10;23.90;;;;;;2322116;53;20515;-65
2024/03/02 06:36:40;0.00;0.00;0.62;0.00;0.00;0.62;2.10;1.60;;;23.10;23.90;;;;;;2263252;61;20427;-65
2024/03/02 06:39:25;0.00;0.00;0.62;0.00;0.00;0.62;3.37;2.00;;;23.10;23.90;;;;;;2262678;61;20392;-65
2024/03/02 06:42:10;0.00;0.00;0.62;0.00;0.00;0.62;2.37;1.77;;;23.10;23.90;;;;;;2263232;61;20371;-65
2024/03/02 06:44:55;0.00;0.00;0.62;0.00;0.00;0.62;2.50;1.87;;;23.10;23.90;;;;;;2385080;45;20379;-65
2024/03/02 06:47:42;0.00;0.00;0.62;0.00;0.00;0.62;2.20;1.70;;;23.10;23.90;;;;;;2422746;45;20406;-65
2024/03/02 06:50:26;0.00;0.00;0.62;0.00;0.00;0.62;3.30;2.30;;;23.10;24.00;;;;;;2263434;61;20411;-65
2024/03/02 06:53:11;0.00;0.00;0.62;0.00;0.00;0.62;2.30;2.07;;;23.10;23.90;;;;;;2263841;61;20455;-65
2024/03/02 06:55:56;0.00;0.00;0.62;0.00;0.00;0.62;2.57;2.10;;;23.10;23.90;;;;;;2274949;57;20841;-65
2024/03/02 06:58:40;0.00;0.00;0.62;0.00;0.00;0.62;3.10;2.30;;;23.10;24.00;;;;;;2357661;53;20359;-65
2024/03/02 07:01:26;0.00;0.00;0.62;0.00;0.00;0.62;2.33;2.07;;;23.10;24.00;;;;;;2263668;61;20909;-65
2024/03/02 07:04:12;0.00;0.00;0.62;0.00;0.00;0.62;3.47;2.30;;;23.10;24.00;;;;;;2263853;61;20368;-65
2024/03/02 07:06:56;0.00;0.00;0.62;0.00;0.00;0.62;4.20;2.67;;;23.10;24.00;;;;;;2318897;53;20388;-67
2024/03/02 07:09:41;0.00;0.00;0.62;0.00;0.00;0.62;2.90;2.50;;;23.10;24.00;;;;;;2448957;45;20941;-66
2024/03/02 07:12:25;0.00;0.00;0.62;0.00;0.00;0.62;3.23;2.43;;;23.10;24.00;;;;;;2264016;61;21000;-66
2024/03/02 07:18:09;0.00;0.00;0.62;0.00;0.00;0.62;3.70;3.17;;;23.10;24.00;;;;;;2263643;61;20883;-66
2024/03/02 07:20:58;0.00;0.00;0.62;0.00;0.00;0.62;4.57;3.30;;;23.10;23.90;;;;;;2400971;45;20403;-66
2024/03/02 07:23:42;0.00;0.00;0.62;0.00;0.00;0.62;3.53;3.10;;;23.10;24.00;;;;;;2344175;53;20430;-66
2024/03/02 07:26:27;0.00;0.00;0.62;0.00;0.00;0.62;3.60;3.17;;;23.10;24.00;;;;;;2263762;61;20372;-66
2024/03/02 07:29:12;0.00;0.00;0.62;0.00;0.00;0.62;4.83;3.70;;;23.10;23.90;;;;;;2263831;61;20468;-66
2024/03/02 07:31:57;0.00;0.00;0.62;0.00;0.00;0.62;4.83;3.67;;;23.10;24.00;;;;;;2342757;53;20920;-66
2024/03/02 07:34:41;0.00;0.00;0.62;0.00;0.00;0.62;5.50;4.10;;;23.00;23.90;;;;;;2449792;45;20774;-66
2024/03/02 07:37:28;0.00;0.00;0.62;0.00;0.00;0.62;5.40;4.27;;;23.10;24.00;;;;;;2263462;61;20860;-66
2024/03/02 07:40:13;0.00;0.00;0.62;0.00;0.00;0.62;4.80;4.10;;;23.10;23.90;;;;;;2263501;61;20419;-66
2024/03/02 07:42:58;0.00;0.00;0.62;0.00;0.00;0.62;5.30;4.60;;;23.10;23.90;;;;;;2392134;45;20415;-66
2024/03/02 07:45:43;0.00;0.00;0.62;0.00;0.00;0.62;6.37;5.13;;;23.10;23.90;;;;;;2451434;45;20360;-65
2024/03/02 07:48:27;0.00;0.00;0.62;0.00;0.00;0.62;5.23;4.30;;;23.00;23.90;;;;;;2263605;61;20418;-66
2024/03/02 07:51:13;0.00;0.00;0.62;0.00;0.00;0.62;6.47;5.60;;;23.10;23.90;;;;;;2259076;61;20432;-66
2024/03/02 07:54:00;0.00;0.00;0.62;0.00;0.00;0.62;5.90;4.50;;;23.10;23.90;;;;;;2391249;45;20398;-66
2024/03/02 07:56:45;0.00;0.00;0.62;0.00;0.00;0.62;5.13;4.33;;;23.10;23.90;;;;;;2345574;53;20937;-66
2024/03/02 07:59:30;0.00;0.00;0.62;0.00;0.00;0.62;5.87;5.23;;;23.10;23.90;;;;;;2263061;61;20391;-66
2024/03/02 08:02:14;0.00;0.00;0.62;0.00;0.00;0.62;6.20;5.17;;;23.10;23.90;;;;;;2263539;61;20507;-66
2024/03/02 08:04:59;0.00;0.00;0.62;0.00;0.00;0.62;7.37;5.77;;;23.10;23.90;;;;;;2379487;45;20732;-66
2024/03/02 08:07:44;0.00;0.00;0.62;0.00;0.00;0.62;7.30;6.27;;;23.10;23.90;;;;;;2451545;45;20447;-66
2024/03/02 08:10:30;0.00;0.00;0.62;0.00;0.00;0.62;8.13;6.53;;;23.10;24.00;;;;;;2263454;61;20387;-66
2024/03/02 08:13:15;0.00;0.00;0.62;0.00;0.00;0.62;8.03;6.87;;;23.10;24.00;;;;;;2263742;61;20491;-66
2024/03/02 08:16:00;0.00;0.00;0.62;0.00;0.00;0.62;6.90;6.17;;;23.10;24.00;;;;;;2319802;53;20470;-66
2024/03/02 08:18:45;0.00;0.00;0.62;0.00;0.00;0.62;7.20;6.50;;;23.10;24.00;;;;;;2449941;45;20478;-66
2024/03/02 08:21:30;0.00;0.00;0.62;0.00;0.00;0.62;6.83;6.13;;;23.10;24.00;;;;;;2263725;61;20414;-66
2024/03/02 08:24:15;0.00;0.00;0.62;0.00;0.00;0.62;7.63;6.37;;;23.10;24.00;;;;;;2263378;61;20423;-66
2024/03/02 08:27:01;0.00;0.00;0.62;0.00;0.00;0.62;8.80;6.73;;;23.10;24.00;;;;;;2394036;45;20426;-66
2024/03/02 08:29:46;0.00;0.00;0.62;0.00;0.00;0.62;8.53;6.60;;;23.10;24.00;;;;;;2299330;53;20435;-66
2024/03/02 08:32:30;0.00;0.00;0.62;0.00;0.00;0.62;7.87;7.07;;;23.10;24.00;;;;;;2262987;61;20413;-66
2024/03/02 08:35:15;0.00;0.00;0.62;0.00;0.00;0.62;7.37;6.57;;;23.10;24.00;;;;;;2263694;61;20450;-66
2024/03/02 08:38:00;0.00;0.00;0.62;0.00;0.00;0.62;8.70;6.70;;;23.10;24.00;;;;;;2395209;45;20821;-66
2024/03/02 08:40:46;0.00;0.00;0.62;0.00;0.00;0.62;8.93;7.63;;;23.10;24.00;;;;;;2363720;53;20384;-66
2024/03/02 08:43:32;0.00;0.00;0.62;0.00;0.00;0.62;7.87;6.80;;;23.10;24.10;;;;;;2263623;61;20375;-66
2024/03/02 08:46:17;0.00;0.00;0.62;0.00;0.00;0.62;7.30;6.40;;;23.10;24.10;;;;;;2263577;61;20400;-66
2024/03/02 08:49:02;0.00;0.00;0.62;0.00;0.00;0.62;8.13;6.77;;;23.10;24.00;;;;;;2342672;53;20423;-66
2024/03/02 08:51:54;0.00;0.00;0.62;0.00;0.00;0.62;8.30;6.63;;;23.10;24.10;;;;;;2448514;45;20372;-65
2024/03/02 08:54:39;0.00;0.00;0.62;0.00;0.00;0.62;8.10;6.80;;;23.20;24.20;;;;;;2260733;61;20375;-66
2024/03/02 08:57:23;0.00;0.00;0.62;0.00;0.00;0.62;7.83;5.83;;;23.20;24.20;;;;;;2263359;61;20380;-66
2024/03/02 09:00:11;0.00;0.00;0.62;0.00;0.00;0.62;6.47;5.73;;;23.20;24.20;;;;;;2263119;61;20388;-66
2024/03/02 09:02:56;0.00;0.00;0.62;0.00;0.00;0.62;7.03;6.33;;;23.20;24.20;;;;;;2331069;53;20376;-66
2024/03/02 09:05:40;0.00;0.00;0.62;0.00;0.00;0.62;6.50;5.80;;;23.20;24.20;;;;;;2263302;61;20888;-66
2024/03/02 09:08:25;0.00;0.00;0.62;0.00;0.00;0.62;6.90;5.93;;;23.20;24.20;;;;;;2263103;61;20375;-66
2024/03/02 09:11:10;0.00;0.00;0.62;0.00;0.00;0.62;6.37;5.77;;;23.20;24.20;;;;;;2263627;61;20442;-66
2024/03/02 09:13:56;0.00;0.00;0.62;0.00;0.00;0.62;7.13;6.20;;;23.20;24.70;;;;;;2368225;53;20412;-66
2024/03/02 09:16:42;0.00;0.00;0.62;0.00;0.00;0.62;7.07;5.77;;;23.20;24.20;;;;;;2263231;61;20446;-66
2024/03/02 09:19:27;0.00;0.00;0.62;0.00;0.00;0.62;7.47;6.37;;;23.20;24.20;;;;;;2263501;61;20929;-66
2024/03/02 09:22:11;0.00;0.00;0.62;0.00;0.00;0.62;6.30;5.43;;;23.20;24.20;;;;;;2263132;61;20411;-66
2024/03/02 09:24:56;0.00;0.00;0.62;0.00;0.00;0.62;6.53;5.90;;;23.20;24.20;;;;;;2418043;45;20479;-66
2024/03/02 09:27:40;0.00;0.00;0.62;0.00;0.00;0.62;7.00;5.50;;;23.20;24.20;;;;;;2259514;61;20820;-66
2024/03/02 09:30:25;0.00;0.00;0.62;0.00;0.00;0.62;7.00;5.70;;;23.20;24.20;;;;;;2314016;58;20443;-66
2024/03/02 09:33:11;0.00;0.00;0.62;0.00;0.00;0.62;6.10;5.50;;;23.20;24.10;;;;;;2263523;61;20839;-66
2024/03/02 09:35:55;0.00;0.00;0.62;0.00;0.00;0.62;6.63;5.97;;;23.20;24.10;;;;;;2333872;53;20392;-66
2024/03/02 09:38:40;0.00;0.00;0.62;0.00;0.00;0.62;8.77;6.73;;;23.20;24.10;;;;;;2263204;61;21038;-66
2024/03/02 09:41:25;0.00;0.00;0.62;0.00;0.00;0.62;6.73;5.63;;;23.20;24.10;;;;;;2263638;61;20375;-66
2024/03/02 09:44:10;0.00;0.00;0.62;0.00;0.00;0.62;5.93;5.33;;;23.30;24.20;;;;;;2263033;61;20452;-66
2024/03/02 09:46:54;0.00;0.00;0.62;0.00;0.00;0.62;6.10;5.50;;;23.30;24.20;;;;;;2406666;45;20375;-66
2024/03/02 09:49:40;0.00;0.00;0.62;0.00;0.00;0.62;7.27;6.20;;;23.20;24.10;;;;;;2263197;61;20953;-66
2024/03/02 09:52:25;0.00;0.00;0.62;0.00;0.00;0.62;5.70;4.87;;;23.30;24.20;;;;;;2263093;61;20391;-67
2024/03/02 09:55:12;0.00;0.00;0.62;0.00;0.00;0.62;6.60;5.47;;;23.30;24.20;;;;;;2261922;61;20969;-66
2024/03/02 09:57:56;0.00;0.00;0.62;0.00;0.00;0.62;6.53;5.00;;;23.30;24.20;;;;;;2340245;53;20364;-66
2024/03/02 10:00:41;0.00;0.00;0.62;0.00;0.00;0.62;6.97;5.70;;;23.30;24.20;;;;;;2263248;61;20917;-66
2024/03/02 10:03:28;0.00;0.00;0.62;0.00;0.00;0.62;6.27;5.67;;;23.30;24.20;;;;;;2263587;61;20442;-66
2024/03/02 10:06:22;0.00;0.00;0.62;0.00;0.00;0.62;6.90;5.90;;;23.30;24.20;;;;;;2263092;61;20881;-66
2024/03/02 10:09:07;0.00;0.00;0.62;0.00;0.00;0.62;6.70;5.53;;;23.30;24.20;;;;;;2318178;53;20383;-66
2024/03/02 10:11:51;0.00;0.00;0.62;0.00;0.00;0.62;7.50;6.13;;;23.30;24.20;;;;;;2416296;45;20367;-66
2024/03/02 10:14:36;0.00;0.00;0.62;0.00;0.00;0.62;7.43;6.20;;;23.30;24.20;;;;;;2263224;61;20373;-66
2024/03/02 10:17:21;0.00;0.00;0.62;0.00;0.00;0.62;7.67;6.43;;;23.30;24.20;;;;;;2263641;61;20392;-66
2024/03/02 10:20:23;0.00;0.00;0.62;0.00;0.00;0.62;7.40;6.70;;;23.30;24.20;;;;;;2393528;45;20391;-66
2024/03/02 10:23:14;0.00;0.00;0.62;0.00;0.00;0.62;8.60;6.90;;;23.30;24.20;;;;;;2385018;45;20375;-66
2024/03/02 10:25:59;0.00;0.00;0.62;0.00;0.00;0.62;8.53;7.27;;;23.30;24.20;;;;;;2333860;53;20777;-67
2024/03/02 10:28:52;0.00;0.00;0.62;0.00;0.00;0.62;9.13;7.73;;;23.30;24.20;;;;;;2263601;61;20396;-66
2024/03/02 10:31:38;0.00;0.00;0.62;0.00;0.00;0.62;7.63;6.80;;;23.30;24.30;;;;;;2262530;61;20838;-66
2024/03/02 10:34:23;0.00;0.00;0.62;0.00;0.00;0.62;9.17;7.93;;;23.30;24.20;;;;;;2264174;61;20518;-66
2024/03/02 10:37:07;0.00;0.00;0.62;0.00;0.00;0.62;8.40;7.50;;;23.40;24.30;;;;;;2373457;45;20437;-67
2024/03/02 10:39:54;0.00;0.00;0.62;0.00;0.00;0.62;8.20;7.00;;;23.30;24.30;;;;;;2451847;45;20951;-66
2024/03/02 10:42:39;0.00;0.00;0.62;0.00;0.00;0.62;8.10;7.27;;;23.40;24.30;;;;;;2263890;61;20380;-66
2024/03/02 10:45:24;0.00;0.00;0.62;0.00;0.00;0.62;8.13;7.17;;;23.40;24.30;;;;;;2263635;61;20363;-67
2024/03/02 10:48:09;0.00;0.00;0.62;0.00;0.00;0.62;10.20;8.30;;;23.40;24.30;;;;;;2387995;45;20368;-66
2024/03/02 10:50:54;0.00;0.00;0.62;0.00;0.00;0.62;9.10;7.23;;;23.40;24.30;;;;;;2307385;58;20967;-65
2024/03/02 10:53:39;0.00;0.00;0.62;0.00;0.00;0.62;8.90;7.20;;;23.40;24.40;;;;;;2264016;61;20434;-66
2024/03/02 10:56:29;0.00;0.00;0.62;0.00;0.00;0.62;9.03;7.77;;;23.40;24.40;;;;;;2262138;61;20453;-66
2024/03/02 10:59:31;0.00;0.00;0.62;0.00;0.00;0.62;8.33;7.10;;;23.40;24.40;;;;;;2263492;61;20441;-66